27 czerwca 2022

Czas Kod Pogoda Temp. Widoczność Sufit Wiatr METAR/SPECI
5:20 am
M
61 °F 4⅜ mi - Var Var 2 kt METAR EDWE 270320Z AUTO VRB02KT 7000 // ///////// 16/15 Q1016
4:50 am
M
61 °F 3⅛ mi - 040° 040° 4 kt METAR EDWE 270250Z AUTO 04004KT 5000 // ///////// 16/16 Q1016
4:20 am
I
61 °F 2⅞ mi - 080° 080° 3 kt METAR EDWE 270220Z AUTO 08003KT 4600 // ///////// 16/16 Q1016
3:50 am
M
61 °F 3⅛ mi - 100° 100° 3 kt METAR EDWE 270150Z AUTO 10003KT 060V180 5000 // ///////// 16/16 Q1015
3:20 am
M
61 °F 3⅛ mi - 100° 100° 2 kt METAR EDWE 270120Z AUTO 10002KT 5000 // ///////// 16/15 Q1015
2:50 am
V
61 °F 5 mi - Var 000° 0 kt METAR EDWE 270050Z AUTO 00000KT 8000 // ///////// 16/15 Q1015
2:20 am
V
63 °F 6¼ mi+ - Var Var 2 kt METAR EDWE 270020Z AUTO VRB02KT 9999 // ///////// 17/15 Q1015
1:50 am
V
63 °F 6¼ mi+ - 060° 060° 4 kt METAR EDWE 262350Z AUTO 06004KT 9999 // ///////// 17/15 Q1015
1:20 am
V
63 °F 6¼ mi+ - 050° 050° 3 kt METAR EDWE 262320Z AUTO 05003KT 9999 // ///////// 17/15 Q1016
12:50 am
V
63 °F 6¼ mi+ - 040° 040° 3 kt METAR EDWE 262250Z AUTO 04003KT 9999 // ///////// 17/14 Q1016
12:20 am
V
63 °F 6¼ mi+ - 040° 040° 3 kt METAR EDWE 262220Z AUTO 04003KT 9999 // ///////// 17/15 Q1016

26 czerwca 2022

Czas Kod Pogoda Temp. Widoczność Sufit Wiatr METAR/SPECI
11:50 pm
V
63 °F 6¼ mi+ - 330° 330° 3 kt METAR EDWE 262150Z AUTO 33003KT 9999 // ///////// 17/14 Q1016
11:20 pm
V
63 °F 6¼ mi+ - Var Var 2 kt METAR EDWE 262120Z AUTO VRB02KT 9999 // ///////// 17/14 Q1016
10:50 pm
V
64 °F 6¼ mi+ - 040° 040° 3 kt METAR EDWE 262050Z AUTO 04003KT 010V070 9999 // ///////// 18/14 Q1016
10:20 pm
V
64 °F 6¼ mi+ - 050° 050° 8 kt METAR EDWE 262020Z AUTO 05008KT 9999 // ///////// 18/15 Q1016
9:50 pm
V
64 °F 6¼ mi+ - 030° 030° 7 kt METAR EDWE 261950Z AUTO 03007KT 9999 // ///////// 18/15 Q1016
9:20 pm
V
64 °F 6¼ mi+ - 020° 020° 6 kt METAR EDWE 261920Z AUTO 02006KT 9999 // ///////// 18/16 Q1016
8:50 pm
V
66 °F 6¼ mi+ - 330° 330° 2 kt METAR EDWE 261850Z AUTO 33002KT 9999 // ///////// 19/16 Q1016
7:20 am
V
64 °F 6¼ mi+ - 250° 250° 6 kt METAR EDWE 260520Z AUTO 25006KT 9999 // ///////// 18/15 Q1012
6:50 am
V
63 °F 6¼ mi+ - 260° 260° 6 kt METAR EDWE 260450Z AUTO 26006KT 9999 // ///////// 17/15 Q1012
6:20 am
V
64 °F 6¼ mi+ - 270° 270° 8 kt METAR EDWE 260420Z AUTO 27008KT 9999 // ///////// 18/16 Q1011
5:50 am
V
64 °F 6¼ mi+ - 280° 280° 7 kt METAR EDWE 260350Z AUTO 28007KT 9999 // ///////// 18/16 Q1011
5:20 am
V
64 °F 5 mi - 240° 240° 7 kt METAR EDWE 260320Z AUTO 24007KT 8000 // ///////// 18/17 Q1011
4:50 am
I
63 °F 2¼ mi - 160° 160° 3 kt METAR EDWE 260250Z AUTO 16003KT 120V260 3600 // ///////// 17/16 Q1010
4:20 am
L
61 °F ⅞ mi - Var Var 2 kt METAR EDWE 260220Z AUTO VRB02KT 1400 R25/P2000N // ///////// 16/15 Q1010
3:50 am
I
61 °F 1⅛ mi - 110° 110° 3 kt METAR EDWE 260150Z AUTO 11003KT 1900 // ///////// 16/15 Q1011
3:20 am
I
61 °F 1½ mi - 090° 090° 3 kt METAR EDWE 260120Z AUTO 09003KT 2500 // ///////// 16/16 Q1011
2:50 am
L
61 °F ¼ mi - 090° 090° 2 kt METAR EDWE 260050Z AUTO 09002KT 0500 R25/0750D // ///////// 16/15 Q1011
2:20 am
L
61 °F ⅛ mi - 080° 080° 1 kt METAR EDWE 260020Z AUTO 08001KT 0300 R25/0350N // ///////// 16/16 Q1011
1:50 am
I
63 °F 2⅛ mi - Var Var 2 kt METAR EDWE 252350Z AUTO VRB02KT 3400 // ///////// 17/16 Q1011
1:20 am
I
63 °F 2¾ mi - Var 000° 0 kt METAR EDWE 252320Z AUTO 00000KT 4500 // ///////// 17/16 Q1011
12:50 am
M
64 °F 3⅛ mi - 080° 080° 2 kt METAR EDWE 252250Z AUTO 08002KT 5000 // ///////// 18/16 Q1011
12:20 am
M
64 °F 4⅜ mi - 080° 080° 2 kt METAR EDWE 252220Z AUTO 08002KT 7000 // ///////// 18/16 Q1011

25 czerwca 2022

Czas Kod Pogoda Temp. Widoczność Sufit Wiatr METAR/SPECI
11:50 pm
V
66 °F 6¼ mi+ - 060° 060° 4 kt METAR EDWE 252150Z AUTO 06004KT 9999 // ///////// 19/16 Q1011
11:20 pm
V
66 °F 6¼ mi+ - 070° 070° 7 kt METAR EDWE 252120Z AUTO 07007KT 9999 // ///////// 19/16 Q1011
10:50 pm
V
66 °F 6¼ mi+ - 060° 060° 4 kt METAR EDWE 252050Z AUTO 06004KT 9999 // ///////// 19/16 Q1012
10:20 pm
V
66 °F 6¼ mi+ - 050° 050° 4 kt METAR EDWE 252020Z AUTO 05004KT 9999 // ///////// 19/16 Q1012
9:50 pm
V
66 °F 6¼ mi+ - 030° 030° 5 kt METAR EDWE 251950Z AUTO 03005KT 9999 // ///////// 19/16 Q1012
9:20 pm
V
66 °F 6¼ mi+ - 020° 020° 5 kt METAR EDWE 251920Z AUTO 02005KT 9999 // ///////// 19/17 Q1012
8:50 pm
V
68 °F 6¼ mi+ - 350° 350° 5 kt METAR EDWE 251850Z AUTO 35005KT 9999 // ///////// 20/17 Q1012
Starsze dane

Pobierz naszą aplikację

Łatwy dostęp do całej pogody lotniczej na telefonie komórkowym i tablecie.
Z wieloma funkcjami niedostępnymi na stronie internetowej, takimi jak wsparcie offline i osobista lista lotnisk.

My i osoby trzecie śledzimy twoje zachowanie w internecie na naszej stronie za pomocą plików cookie. Jeśli kontynuujesz, zakładamy, że zgadzasz się z naszą polityką plików cookie. Dowiedz się więcej